createdAt,value
2023-01-06T00:01:30.187Z,99188.06
2023-01-06T00:04:38.137Z,99198.91
2023-01-06T00:07:46.029Z,99193.78
2023-01-06T00:10:55.032Z,99190.24
2023-01-06T00:14:01.377Z,99197.68
2023-01-06T00:17:07.335Z,99196.32
2023-01-06T00:20:13.220Z,99199.05
2023-01-06T00:23:18.393Z,99196.67
2023-01-06T00:26:28.041Z,99202.62
2023-01-06T00:29:35.625Z,99206.52
2023-01-06T00:32:42.310Z,99209.23
2023-01-06T00:35:48.972Z,99209.05
2023-01-06T00:38:55.707Z,99214.31
2023-01-06T00:42:11.272Z,99214.66
2023-01-06T00:45:17.140Z,99211.94
2023-01-06T00:48:24.152Z,99210.05
2023-01-06T00:51:30.073Z,99209.03
2023-01-06T00:54:37.582Z,99206.64
2023-01-06T00:57:43.604Z,99215.30
2023-01-06T01:00:49.873Z,99211.76
2023-01-06T01:03:55.849Z,99211.58
2023-01-06T01:07:02.234Z,99206.13
2023-01-06T01:10:08.956Z,99206.13
2023-01-06T01:13:14.932Z,99208.86
2023-01-06T01:16:22.037Z,99212.94
2023-01-06T01:19:28.496Z,99213.26
2023-01-06T01:22:33.627Z,99219.88
2023-01-06T01:25:40.313Z,99215.29
2023-01-06T01:28:47.343Z,99222.41
2023-01-06T01:31:53.327Z,99218.33
2023-01-06T01:35:00.498Z,99212.20
2023-01-06T01:38:07.545Z,99223.22
2023-01-06T01:41:11.985Z,99216.95
2023-01-06T01:44:39.153Z,99218.82
2023-01-06T01:47:58.845Z,99216.95
2023-01-06T01:51:08.206Z,99215.59
2023-01-06T01:54:18.433Z,99215.06
2023-01-06T01:57:29.346Z,99221.67
2023-01-06T02:00:36.483Z,99220.31
2023-01-06T02:03:45.334Z,99215.23
2023-01-06T02:06:54.237Z,99215.23
2023-01-06T02:10:09.380Z,99227.79
2023-01-06T02:13:15.649Z,99219.12
2023-01-06T02:16:49.819Z,99223.20
2023-01-06T02:20:16.222Z,99225.07
2023-01-06T02:23:58.148Z,99230.70
2023-01-06T02:27:46.480Z,99230.19
2023-01-06T02:31:29.042Z,99243.45
2023-01-06T02:34:54.208Z,99236.64
2023-01-06T02:38:22.430Z,99246.16
2023-01-06T02:41:48.340Z,99244.66
2023-01-06T02:44:59.725Z,99242.80
2023-01-06T02:48:24.342Z,99249.61
2023-01-06T02:51:40.149Z,99256.41
2023-01-06T02:55:00.975Z,99262.86
2023-01-06T02:58:15.781Z,99249.79
2023-01-06T03:01:32.463Z,99259.14
2023-01-06T03:04:45.318Z,99260.00
2023-01-06T03:07:52.306Z,99266.30
2023-01-06T03:11:00.564Z,99270.70
2023-01-06T03:14:44.646Z,99265.76
2023-01-06T03:17:51.108Z,99271.92
2023-01-06T03:20:50.110Z,99273.78
2023-01-06T03:23:55.655Z,99273.78
2023-01-06T03:27:01.126Z,99278.36
2023-01-06T03:30:07.581Z,99278.91
2023-01-06T03:33:22.837Z,99281.27
2023-01-06T03:36:44.775Z,99293.52
2023-01-06T03:39:48.913Z,99289.78
2023-01-06T03:43:22.765Z,99302.71
2023-01-06T03:46:37.903Z,99297.27
2023-01-06T03:49:49.960Z,99301.17
2023-01-06T03:53:20.485Z,99306.44
2023-01-06T03:56:46.213Z,99303.53
2023-01-06T04:00:04.021Z,99307.11
2023-01-06T04:03:16.409Z,99306.44
2023-01-06T04:06:22.094Z,99310.52
2023-01-06T04:09:30.130Z,99305.07
2023-01-06T04:12:45.876Z,99316.63
2023-01-06T04:15:56.148Z,99318.64
2023-01-06T04:19:02.531Z,99327.33
2023-01-06T04:22:08.500Z,99327.52
2023-01-06T04:25:14.722Z,99341.12
2023-01-06T04:28:20.764Z,99341.80
2023-01-06T04:31:26.058Z,99353.05
2023-01-06T04:34:31.870Z,99356.95
2023-01-06T04:37:37.666Z,99367.87
2023-01-06T04:40:43.777Z,99373.20
2023-01-06T04:43:50.158Z,99362.53
2023-01-06T04:46:56.128Z,99403.88
2023-01-06T04:50:02.204Z,99398.47
2023-01-06T04:53:08.240Z,99414.97
2023-01-06T04:56:19.118Z,99413.11
2023-01-06T04:59:24.869Z,99421.13
2023-01-06T05:02:30.349Z,99432.34
2023-01-06T05:05:35.544Z,99442.31
2023-01-06T05:08:42.286Z,99444.83
2023-01-06T05:11:49.236Z,99449.06
2023-01-06T05:14:55.199Z,99462.79
2023-01-06T05:18:01.841Z,99471.41
2023-01-06T05:21:08.144Z,99485.25
2023-01-06T05:24:14.061Z,99486.90
2023-01-06T05:27:19.689Z,99506.50
2023-01-06T05:30:28.863Z,99519.47
2023-01-06T05:33:35.944Z,99523.22
2023-01-06T05:36:41.610Z,99527.96
2023-01-06T05:39:46.718Z,99545.95
2023-01-06T05:42:52.078Z,99548.59
2023-01-06T05:45:57.691Z,99559.29
2023-01-06T05:49:03.680Z,99560.56
2023-01-06T05:52:10.276Z,99568.69
2023-01-06T05:55:15.361Z,99577.09
2023-01-06T05:58:22.269Z,99587.48
2023-01-06T06:01:42.588Z,99590.78
2023-01-06T06:04:48.455Z,99604.92
2023-01-06T06:07:54.842Z,99618.99
2023-01-06T06:11:00.809Z,99628.91
2023-01-06T06:14:10.582Z,99651.46
2023-01-06T06:17:17.193Z,99640.98
2023-01-06T06:20:23.082Z,99659.50
2023-01-06T06:23:29.880Z,99670.46
2023-01-06T06:26:34.567Z,99684.12
2023-01-06T06:29:40.818Z,99702.57
2023-01-06T06:32:46.540Z,99709.87
2023-01-06T06:35:53.559Z,99714.64
2023-01-06T06:39:04.429Z,99727.86
2023-01-06T06:42:11.643Z,99736.22
2023-01-06T06:45:18.180Z,99752.59
2023-01-06T06:48:23.690Z,99753.38
2023-01-06T06:51:34.065Z,99754.59
2023-01-06T06:54:40.244Z,99769.95
2023-01-06T06:57:46.192Z,99772.74
2023-01-06T07:00:52.987Z,99780.63
2023-01-06T07:03:59.055Z,99788.39
2023-01-06T07:07:04.508Z,99800.90
2023-01-06T07:10:12.851Z,99802.20
2023-01-06T07:13:18.987Z,99814.94
2023-01-06T07:16:25.320Z,99814.94
2023-01-06T07:19:30.803Z,99819.20
2023-01-06T07:22:36.491Z,99815.09
2023-01-06T07:25:41.540Z,99839.13
2023-01-06T07:28:49.829Z,99830.73
2023-01-06T07:31:59.539Z,99861.31
2023-01-06T07:35:06.194Z,99858.06
2023-01-06T07:38:20.764Z,99858.20
2023-01-06T07:41:26.888Z,99890.79
2023-01-06T07:44:32.727Z,99890.50
2023-01-06T07:47:38.961Z,99895.33
2023-01-06T07:50:46.753Z,99906.13
2023-01-06T07:53:52.408Z,99917.95
2023-01-06T07:56:58.657Z,99933.59
2023-01-06T08:00:04.618Z,99924.89
2023-01-06T08:03:14.127Z,99928.64
2023-01-06T08:06:25.878Z,99962.70
2023-01-06T08:09:31.295Z,99972.72
2023-01-06T08:12:36.857Z,99983.38
2023-01-06T08:15:44.306Z,99996.01
2023-01-06T08:18:52.266Z,100003.33
2023-01-06T08:21:59.267Z,100008.59
2023-01-06T08:25:06.356Z,100014.27
2023-01-06T08:28:15.336Z,100031.70
2023-01-06T08:31:27.238Z,100015.69
2023-01-06T08:34:33.228Z,100020.28
2023-01-06T08:37:38.156Z,100038.86
2023-01-06T08:40:45.755Z,100044.05
2023-01-06T08:43:56.271Z,100056.84
2023-01-06T08:47:02.586Z,100061.13
2023-01-06T08:50:07.502Z,100072.30
2023-01-06T08:53:13.366Z,100085.41
2023-01-06T08:56:30.818Z,100083.84
2023-01-06T08:59:39.013Z,100093.63
2023-01-06T09:02:46.852Z,100106.39
2023-01-06T09:05:54.022Z,100112.27
2023-01-06T09:09:00.512Z,100098.91
2023-01-06T09:12:08.155Z,100108.52
2023-01-06T09:15:13.915Z,100112.95
2023-01-06T09:18:21.475Z,100111.48
2023-01-06T09:21:26.704Z,100117.84
2023-01-06T09:24:33.891Z,100113.95
2023-01-06T09:27:41.187Z,100129.53
2023-01-06T09:30:48.342Z,100125.38
2023-01-06T09:33:54.979Z,100145.39
2023-01-06T09:37:01.161Z,100145.03
2023-01-06T09:40:07.793Z,100143.42
2023-01-06T09:43:39.256Z,100167.23
2023-01-06T09:46:49.582Z,100154.84
2023-01-06T09:50:05.876Z,100194.81
2023-01-06T09:53:29.563Z,100195.54
2023-01-06T09:56:39.080Z,100202.64
2023-01-06T10:00:01.562Z,100208.16
2023-01-06T10:03:07.408Z,100214.66
2023-01-06T10:06:45.481Z,100220.41
2023-01-06T10:10:02.470Z,100228.50
2023-01-06T10:13:31.946Z,100254.70
2023-01-06T10:17:10.101Z,100232.49
2023-01-06T10:20:26.832Z,100245.73
2023-01-06T10:23:58.296Z,100255.76
2023-01-06T10:27:08.961Z,100250.34
2023-01-06T10:30:15.588Z,100249.23
2023-01-06T10:33:42.638Z,100268.33
2023-01-06T10:36:57.514Z,100280.99
2023-01-06T10:40:11.107Z,100281.30
2023-01-06T10:43:19.428Z,100280.41
2023-01-06T10:46:24.579Z,100288.09
2023-01-06T10:49:32.941Z,100297.69
2023-01-06T10:52:39.165Z,100312.67
2023-01-06T10:56:03.069Z,100312.37
2023-01-06T10:59:23.897Z,100328.13
2023-01-06T11:02:37.926Z,100336.61
2023-01-06T11:05:47.399Z,100359.56
2023-01-06T11:08:53.656Z,100354.73
2023-01-06T11:12:03.702Z,100338.53
2023-01-06T11:15:15.164Z,100348.21
2023-01-06T11:18:46.207Z,100355.59
2023-01-06T11:21:59.969Z,100376.30
2023-01-06T11:25:09.831Z,100390.39
2023-01-06T11:28:29.367Z,100388.98
2023-01-06T11:31:38.867Z,100402.55
2023-01-06T11:34:46.016Z,100432.84
2023-01-06T11:37:56.770Z,100399.92
2023-01-06T11:41:07.292Z,100416.52
2023-01-06T11:44:17.630Z,100428.17
2023-01-06T11:47:38.625Z,100446.27
2023-01-06T11:50:47.886Z,100448.28
2023-01-06T11:53:58.061Z,100467.98
2023-01-06T11:57:34.807Z,100470.87
2023-01-06T12:01:08.934Z,100477.98
2023-01-06T12:04:22.040Z,100473.56
2023-01-06T12:07:56.947Z,100492.20
2023-01-06T12:11:09.830Z,100465.70
2023-01-06T12:14:27.471Z,100485.59
2023-01-06T12:17:40.137Z,100487.61
2023-01-06T12:20:49.830Z,100491.06
2023-01-06T12:23:57.917Z,100497.81
2023-01-06T12:27:05.694Z,100492.14
2023-01-06T12:30:18.892Z,100517.35
2023-01-06T12:33:31.405Z,100524.84
2023-01-06T12:37:05.892Z,100540.68
2023-01-06T12:40:36.077Z,100550.84
2023-01-06T12:43:42.476Z,100556.62
2023-01-06T12:47:01.050Z,100553.83
2023-01-06T12:50:15.852Z,100557.76
2023-01-06T12:53:40.348Z,100568.60
2023-01-06T12:56:53.376Z,100585.55
2023-01-06T13:00:31.550Z,100594.02
2023-01-06T13:03:54.419Z,100602.16
2023-01-06T13:07:30.667Z,100619.42
2023-01-06T13:11:02.332Z,100623.83
2023-01-06T13:14:43.219Z,100634.00
2023-01-06T13:17:56.223Z,100629.86
2023-01-06T13:21:08.692Z,100642.25
2023-01-06T13:24:27.504Z,100636.66
2023-01-06T13:28:02.553Z,100656.70
2023-01-06T13:31:22.094Z,100655.75
2023-01-06T13:34:42.192Z,100656.80
2023-01-06T13:38:07.534Z,100690.78
2023-01-06T13:41:14.919Z,100683.06
2023-01-06T13:44:24.136Z,100672.23
2023-01-06T13:47:35.912Z,100681.75
2023-01-06T13:50:40.249Z,100683.56
2023-01-06T13:53:57.078Z,100697.74
2023-01-06T13:57:06.465Z,100710.11
2023-01-06T14:00:23.062Z,100737.45
2023-01-06T14:03:38.764Z,100729.09
2023-01-06T14:06:53.535Z,100748.13
2023-01-06T14:10:04.748Z,100743.23
2023-01-06T14:13:09.549Z,100758.17
2023-01-06T14:16:27.393Z,100759.88
2023-01-06T14:19:47.196Z,100774.59
2023-01-06T14:22:55.011Z,100779.34
2023-01-06T14:26:05.440Z,100784.08
2023-01-06T14:29:16.795Z,100792.07
2023-01-06T14:32:27.783Z,100806.84
2023-01-06T14:35:36.360Z,100814.89
2023-01-06T14:39:04.743Z,100821.05
2023-01-06T14:42:37.249Z,100835.97
2023-01-06T14:45:52.101Z,100842.86
2023-01-06T14:49:01.308Z,100850.94
2023-01-06T14:52:10.040Z,100860.09
2023-01-06T14:55:15.780Z,100853.40
2023-01-06T14:58:20.737Z,100867.36
2023-01-06T15:01:46.594Z,100884.77
2023-01-06T15:04:51.606Z,100891.60
2023-01-06T15:08:15.813Z,100896.09
2023-01-06T15:11:43.658Z,100907.50
2023-01-06T15:14:50.460Z,100908.19
2023-01-06T15:17:55.750Z,100922.19
2023-01-06T15:21:02.787Z,100928.92
2023-01-06T15:24:08.284Z,100937.25
2023-01-06T15:27:25.991Z,100943.44
2023-01-06T15:30:34.034Z,100943.89
2023-01-06T15:33:46.142Z,100950.30
2023-01-06T15:36:53.573Z,100957.70
2023-01-06T15:39:59.882Z,100962.46
2023-01-06T15:42:59.142Z,100968.34
2023-01-06T15:46:21.687Z,100980.06
2023-01-06T15:49:42.562Z,100974.56
2023-01-06T15:52:51.382Z,100967.25
2023-01-06T15:55:56.301Z,100970.78
2023-01-06T15:59:07.074Z,100978.21
2023-01-06T16:02:13.109Z,100971.20
2023-01-06T16:05:48.200Z,100991.23
2023-01-06T16:08:57.321Z,100986.11
2023-01-06T16:12:16.052Z,100990.39
2023-01-06T16:15:52.501Z,100986.37
2023-01-06T16:18:59.971Z,100984.28
2023-01-06T16:22:10.561Z,100993.16
2023-01-06T16:25:21.186Z,100998.36
2023-01-06T16:28:33.026Z,101000.50
2023-01-06T16:31:56.257Z,101005.31
2023-01-06T16:35:09.187Z,100999.73
2023-01-06T16:38:17.297Z,101006.76
2023-01-06T16:41:27.427Z,101015.36
2023-01-06T16:44:33.565Z,101016.70
2023-01-06T16:47:39.782Z,101036.33
2023-01-06T16:50:51.584Z,101044.59
2023-01-06T16:53:59.972Z,101053.01
2023-01-06T16:57:06.755Z,101067.03
2023-01-06T17:00:12.654Z,101062.92
2023-01-06T17:03:25.965Z,101061.78
2023-01-06T17:06:35.575Z,101066.94
2023-01-06T17:09:42.655Z,101068.50
2023-01-06T17:13:06.377Z,101086.59
2023-01-06T17:16:33.925Z,101098.20
2023-01-06T17:19:44.002Z,101098.34
2023-01-06T17:22:44.020Z,101127.09
2023-01-06T17:25:31.030Z,101121.34
2023-01-06T17:28:30.038Z,101126.75
2023-01-06T17:31:32.709Z,101126.56
2023-01-06T17:34:46.366Z,101132.31
2023-01-06T17:37:52.102Z,101157.54
2023-01-06T17:40:59.284Z,101149.75
2023-01-06T17:44:05.426Z,101153.62
2023-01-06T17:47:10.470Z,101194.34
2023-01-06T17:50:34.832Z,101170.65
2023-01-06T17:54:04.478Z,101175.16
2023-01-06T17:57:11.452Z,101176.34
2023-01-06T18:00:17.607Z,101184.45
2023-01-06T18:03:33.637Z,101195.61
2023-01-06T18:06:47.255Z,101194.61
2023-01-06T18:09:53.635Z,101189.39
2023-01-06T18:12:58.820Z,101206.16
2023-01-06T18:16:07.423Z,101205.95
2023-01-06T18:19:47.510Z,101211.87
2023-01-06T18:22:54.331Z,101202.67
2023-01-06T18:26:00.783Z,101208.71
2023-01-06T18:29:25.526Z,101203.89
2023-01-06T18:32:42.706Z,101218.05
2023-01-06T18:35:49.889Z,101219.17
2023-01-06T18:38:56.471Z,101220.63
2023-01-06T18:42:05.748Z,101227.23
2023-01-06T18:45:35.238Z,101229.02
2023-01-06T18:48:46.674Z,101230.91
2023-01-06T18:51:53.754Z,101234.70
2023-01-06T18:55:00.150Z,101235.39
2023-01-06T18:58:21.624Z,101249.27
2023-01-06T19:01:47.327Z,101250.16
2023-01-06T19:04:54.036Z,101254.84
2023-01-06T19:08:02.841Z,101268.42
2023-01-06T19:11:09.210Z,101261.05
2023-01-06T19:14:17.633Z,101267.05
2023-01-06T19:17:51.217Z,101281.07
2023-01-06T19:20:58.206Z,101291.94
2023-01-06T19:24:04.726Z,101300.99
2023-01-06T19:27:10.873Z,101298.52
2023-01-06T19:30:52.875Z,101315.30
2023-01-06T19:34:14.323Z,101312.45
2023-01-06T19:37:29.026Z,101308.55
2023-01-06T19:40:44.159Z,101322.20
2023-01-06T19:43:50.807Z,101317.56
2023-01-06T19:47:04.104Z,101332.41
2023-01-06T19:50:14.233Z,101331.91
2023-01-06T19:53:22.657Z,101331.86
2023-01-06T19:56:34.035Z,101330.62
2023-01-06T19:59:43.663Z,101333.80
2023-01-06T20:02:56.765Z,101326.78
2023-01-06T20:06:05.633Z,101344.25
2023-01-06T20:09:12.873Z,101330.64
2023-01-06T20:12:20.478Z,101327.58
2023-01-06T20:15:26.859Z,101336.80
2023-01-06T20:18:32.030Z,101333.70
2023-01-06T20:21:41.197Z,101334.27
2023-01-06T20:24:48.344Z,101335.29
2023-01-06T20:27:53.744Z,101337.59
2023-01-06T20:30:58.905Z,101342.32
2023-01-06T20:34:04.856Z,101344.66
2023-01-06T20:37:11.281Z,101354.58
2023-01-06T20:40:16.886Z,101353.88
2023-01-06T20:43:23.597Z,101360.05
2023-01-06T20:46:30.721Z,101364.25
2023-01-06T20:49:37.426Z,101379.41
2023-01-06T20:52:43.351Z,101378.46
2023-01-06T20:55:52.175Z,101382.51
2023-01-06T20:58:58.149Z,101390.63
2023-01-06T21:02:04.435Z,101398.36
2023-01-06T21:05:11.437Z,101401.67
2023-01-06T21:08:19.588Z,101405.91
2023-01-06T21:11:27.472Z,101418.73
2023-01-06T21:14:33.020Z,101410.81
2023-01-06T21:17:40.807Z,101420.92
2023-01-06T21:20:48.850Z,101430.79
2023-01-06T21:23:55.814Z,101415.19
2023-01-06T21:27:03.836Z,101405.31
2023-01-06T21:30:10.140Z,101417.23
2023-01-06T21:33:16.143Z,101426.72
2023-01-06T21:36:24.066Z,101434.40
2023-01-06T21:39:29.721Z,101434.31
2023-01-06T21:42:52.442Z,101430.85
2023-01-06T21:45:58.173Z,101432.09
2023-01-06T21:49:03.712Z,101438.84
2023-01-06T21:52:12.401Z,101436.40
2023-01-06T21:55:18.477Z,101445.77
2023-01-06T21:58:26.647Z,101449.14
2023-01-06T22:01:34.359Z,101455.48
2023-01-06T22:04:39.990Z,101445.98
2023-01-06T22:07:46.100Z,101448.94
2023-01-06T22:10:55.329Z,101458.98
2023-01-06T22:14:00.821Z,101469.45
2023-01-06T22:17:07.047Z,101478.23
2023-01-06T22:20:13.459Z,101480.50
2023-01-06T22:23:21.154Z,101483.56
2023-01-06T22:26:27.629Z,101482.59
2023-01-06T22:29:33.394Z,101495.37
2023-01-06T22:32:39.589Z,101492.13
2023-01-06T22:35:48.769Z,101488.71
2023-01-06T22:38:55.557Z,101486.27
2023-01-06T22:42:02.255Z,101478.23
2023-01-06T22:45:08.500Z,101480.73
2023-01-06T22:48:15.473Z,101466.44
2023-01-06T22:51:21.535Z,101482.23
2023-01-06T22:54:27.889Z,101476.77
2023-01-06T22:57:33.191Z,101475.97
2023-01-06T23:00:41.672Z,101473.58
2023-01-06T23:03:49.080Z,101470.47
2023-01-06T23:06:55.147Z,101478.68
2023-01-06T23:10:01.283Z,101486.22
2023-01-06T23:13:06.320Z,101477.31
2023-01-06T23:16:18.105Z,101492.04
2023-01-06T23:19:28.126Z,101498.73
2023-01-06T23:22:34.116Z,101505.27
2023-01-06T23:25:40.836Z,101505.09
2023-01-06T23:28:48.800Z,101511.92
2023-01-06T23:31:57.439Z,101520.41
2023-01-06T23:35:04.253Z,101520.22
2023-01-06T23:38:09.371Z,101512.63
2023-01-06T23:41:28.436Z,101518.05
2023-01-06T23:44:34.857Z,101520.36
2023-01-06T23:47:41.950Z,101533.63
2023-01-06T23:50:51.384Z,101538.96
2023-01-06T23:53:57.234Z,101547.62
2023-01-06T23:57:03.266Z,101558.18
